createdAt,value
2023-03-01T00:00:31.238Z,73
2023-03-01T00:01:31.213Z,73
2023-03-01T00:02:31.295Z,73
2023-03-01T00:03:31.303Z,73
2023-03-01T00:04:31.264Z,73
2023-03-01T00:05:31.177Z,73
2023-03-01T00:06:31.504Z,73
2023-03-01T00:07:31.262Z,73
2023-03-01T00:08:32.307Z,73
2023-03-01T00:09:32.251Z,73
2023-03-01T00:10:32.243Z,73
2023-03-01T00:11:32.275Z,73
2023-03-01T00:12:32.248Z,73
2023-03-01T00:13:32.268Z,73
2023-03-01T00:14:32.219Z,73
2023-03-01T00:15:32.240Z,73
2023-03-01T00:16:32.639Z,73
2023-03-01T00:17:32.294Z,73
2023-03-01T00:18:32.222Z,73
2023-03-01T00:19:32.315Z,73
2023-03-01T00:20:32.292Z,73
2023-03-01T00:21:32.272Z,73
2023-03-01T00:22:32.228Z,73
2023-03-01T00:23:32.256Z,73
2023-03-01T00:24:32.222Z,73
2023-03-01T00:25:32.295Z,73
2023-03-01T00:26:32.719Z,73
2023-03-01T00:27:32.240Z,74
2023-03-01T00:28:32.247Z,74
2023-03-01T00:29:32.272Z,74
2023-03-01T00:30:32.232Z,74
2023-03-01T00:31:32.267Z,74
2023-03-01T00:32:32.247Z,74
2023-03-01T00:33:32.274Z,74
2023-03-01T00:34:32.221Z,74
2023-03-01T00:35:32.244Z,74
2023-03-01T00:36:32.667Z,74
2023-03-01T00:37:32.256Z,74
2023-03-01T00:38:32.244Z,74
2023-03-01T00:39:32.264Z,74
2023-03-01T00:40:32.200Z,74
2023-03-01T00:41:32.269Z,74
2023-03-01T00:42:32.241Z,74
2023-03-01T00:43:32.258Z,75
2023-03-01T00:44:32.241Z,75
2023-03-01T00:45:32.286Z,75
2023-03-01T00:46:32.762Z,75
2023-03-01T00:47:32.245Z,75
2023-03-01T00:48:32.224Z,75
2023-03-01T00:49:32.239Z,75
2023-03-01T00:50:32.228Z,75
2023-03-01T00:51:32.244Z,75
2023-03-01T00:52:32.268Z,75
2023-03-01T00:53:32.277Z,75
2023-03-01T00:54:32.243Z,75
2023-03-01T00:55:32.249Z,75
2023-03-01T00:56:32.575Z,75
2023-03-01T00:57:32.295Z,75
2023-03-01T00:58:32.250Z,75
2023-03-01T00:59:32.232Z,75
2023-03-01T01:00:32.270Z,75
2023-03-01T01:01:32.448Z,75
2023-03-01T01:02:32.254Z,75
2023-03-01T01:03:32.249Z,76
2023-03-01T01:04:32.244Z,75
2023-03-01T01:05:32.296Z,76
2023-03-01T01:06:32.688Z,76
2023-03-01T01:07:32.290Z,76
2023-03-01T01:08:32.227Z,75
2023-03-01T01:09:32.229Z,75
2023-03-01T01:10:32.214Z,75
2023-03-01T01:11:32.263Z,75
2023-03-01T01:12:32.240Z,75
2023-03-01T01:13:32.265Z,75
2023-03-01T01:14:32.250Z,75
2023-03-01T01:15:32.274Z,75
2023-03-01T01:16:32.714Z,75
2023-03-01T01:17:32.252Z,75
2023-03-01T01:18:32.245Z,75
2023-03-01T01:19:32.238Z,75
2023-03-01T01:20:32.269Z,75
2023-03-01T01:21:32.256Z,75
2023-03-01T01:22:32.269Z,75
2023-03-01T01:23:32.238Z,75
2023-03-01T01:24:32.241Z,75
2023-03-01T01:25:32.248Z,75
2023-03-01T01:26:32.853Z,75
2023-03-01T01:27:32.211Z,75
2023-03-01T01:28:32.270Z,75
2023-03-01T01:29:32.247Z,75
2023-03-01T01:30:32.241Z,75
2023-03-01T01:31:32.379Z,76
2023-03-01T01:32:32.293Z,75
2023-03-01T01:33:32.265Z,76
2023-03-01T01:34:32.243Z,76
2023-03-01T01:35:32.277Z,76
2023-03-01T01:36:32.714Z,76
2023-03-01T01:37:32.290Z,76
2023-03-01T01:38:32.245Z,76
2023-03-01T01:39:32.260Z,76
2023-03-01T01:40:32.401Z,76
2023-03-01T01:41:32.438Z,76
2023-03-01T01:42:32.371Z,76
2023-03-01T01:43:32.340Z,77
2023-03-01T01:44:32.394Z,77
2023-03-01T01:45:32.377Z,76
2023-03-01T01:46:32.935Z,77
2023-03-01T01:47:32.371Z,77
2023-03-01T01:48:32.400Z,77
2023-03-01T01:49:32.413Z,77
2023-03-01T01:50:32.363Z,77
2023-03-01T01:51:32.420Z,77
2023-03-01T01:52:32.401Z,77
2023-03-01T01:53:32.323Z,77
2023-03-01T01:54:32.398Z,77
2023-03-01T01:55:32.366Z,77
2023-03-01T01:56:32.581Z,77
2023-03-01T01:57:32.244Z,77
2023-03-01T01:58:32.211Z,77
2023-03-01T01:59:32.243Z,78
2023-03-01T02:00:32.245Z,78
2023-03-01T02:01:32.236Z,78
2023-03-01T02:02:32.354Z,78
2023-03-01T02:03:32.308Z,78
2023-03-01T02:04:32.242Z,78
2023-03-01T02:05:32.222Z,78
2023-03-01T02:06:32.770Z,78
2023-03-01T02:07:32.194Z,78
2023-03-01T02:08:32.255Z,78
2023-03-01T02:09:32.232Z,78
2023-03-01T02:10:32.223Z,78
2023-03-01T02:11:32.231Z,78
2023-03-01T02:12:32.247Z,79
2023-03-01T02:13:32.249Z,79
2023-03-01T02:14:32.232Z,79
2023-03-01T02:15:32.247Z,79
2023-03-01T02:16:32.862Z,79
2023-03-01T02:17:32.249Z,79
2023-03-01T02:18:32.188Z,79
2023-03-01T02:19:32.227Z,79
2023-03-01T02:20:32.267Z,80
2023-03-01T02:21:32.237Z,80
2023-03-01T02:22:32.299Z,80
2023-03-01T02:23:32.222Z,80
2023-03-01T02:24:32.265Z,80
2023-03-01T02:25:32.259Z,80
2023-03-01T02:26:32.628Z,80
2023-03-01T02:27:32.244Z,81
2023-03-01T02:28:32.251Z,81
2023-03-01T02:29:32.240Z,81
2023-03-01T02:30:32.210Z,81
2023-03-01T02:31:32.261Z,81
2023-03-01T02:32:32.245Z,81
2023-03-01T02:33:32.228Z,81
2023-03-01T02:34:32.263Z,81
2023-03-01T02:35:32.295Z,81
2023-03-01T02:36:32.612Z,81
2023-03-01T02:37:32.252Z,81
2023-03-01T02:38:32.279Z,81
2023-03-01T02:39:32.221Z,81
2023-03-01T02:40:32.253Z,81
2023-03-01T02:41:32.198Z,81
2023-03-01T02:42:32.249Z,81
2023-03-01T02:43:32.229Z,81
2023-03-01T02:44:32.246Z,81
2023-03-01T02:45:32.238Z,81
2023-03-01T02:46:32.578Z,81
2023-03-01T02:47:32.226Z,81
2023-03-01T02:48:32.251Z,81
2023-03-01T02:49:32.234Z,82
2023-03-01T02:50:32.198Z,82
2023-03-01T02:51:32.221Z,82
2023-03-01T02:52:32.241Z,82
2023-03-01T02:53:32.247Z,82
2023-03-01T02:54:32.262Z,82
2023-03-01T02:55:32.209Z,82
2023-03-01T02:56:32.479Z,82
2023-03-01T02:57:32.210Z,82
2023-03-01T02:58:32.212Z,82
2023-03-01T02:59:32.238Z,82
2023-03-01T03:00:32.269Z,82
2023-03-01T03:01:32.380Z,82
2023-03-01T03:02:32.263Z,82
2023-03-01T03:03:32.326Z,82
2023-03-01T03:04:32.236Z,82
2023-03-01T03:05:32.244Z,82
2023-03-01T03:06:32.390Z,81
2023-03-01T03:07:32.240Z,81
2023-03-01T03:08:32.317Z,81
2023-03-01T03:09:32.254Z,81
2023-03-01T03:10:32.276Z,82
2023-03-01T03:11:32.218Z,81
2023-03-01T03:12:32.375Z,81
2023-03-01T03:13:32.374Z,82
2023-03-01T03:14:32.210Z,82
2023-03-01T03:15:32.239Z,82
2023-03-01T03:16:32.550Z,82
2023-03-01T03:17:32.239Z,82
2023-03-01T03:18:32.198Z,82
2023-03-01T03:19:32.222Z,82
2023-03-01T03:20:32.237Z,82
2023-03-01T03:21:32.225Z,82
2023-03-01T03:22:32.404Z,82
2023-03-01T03:23:32.360Z,82
2023-03-01T03:24:32.232Z,82
2023-03-01T03:25:32.261Z,82
2023-03-01T03:26:32.600Z,82
2023-03-01T03:27:32.357Z,82
2023-03-01T03:28:32.334Z,82
2023-03-01T03:29:32.228Z,82
2023-03-01T03:30:32.220Z,82
2023-03-01T03:31:32.437Z,82
2023-03-01T03:32:32.374Z,82
2023-03-01T03:33:32.220Z,82
2023-03-01T03:34:32.219Z,82
2023-03-01T03:35:32.297Z,82
2023-03-01T03:36:32.497Z,82
2023-03-01T03:37:32.237Z,82
2023-03-01T03:38:32.378Z,82
2023-03-01T03:39:32.363Z,82
2023-03-01T03:40:32.332Z,82
2023-03-01T03:41:32.247Z,82
2023-03-01T03:42:32.399Z,82
2023-03-01T03:43:32.207Z,82
2023-03-01T03:44:32.353Z,82
2023-03-01T03:45:32.290Z,82
2023-03-01T03:46:32.700Z,82
2023-03-01T03:47:32.270Z,82
2023-03-01T03:48:32.221Z,82
2023-03-01T03:49:32.210Z,82
2023-03-01T03:50:32.190Z,82
2023-03-01T03:51:32.345Z,82
2023-03-01T03:52:32.242Z,82
2023-03-01T03:53:32.258Z,82
2023-03-01T03:54:32.217Z,83
2023-03-01T03:55:32.214Z,83
2023-03-01T03:56:32.543Z,83
2023-03-01T03:57:32.236Z,83
2023-03-01T03:58:32.225Z,83
2023-03-01T03:59:32.186Z,83
2023-03-01T04:00:32.221Z,83
2023-03-01T04:01:32.253Z,83
2023-03-01T04:02:32.286Z,83
2023-03-01T04:03:32.192Z,83
2023-03-01T04:04:32.217Z,84
2023-03-01T04:05:32.245Z,84
2023-03-01T04:06:32.501Z,84
2023-03-01T04:07:32.202Z,84
2023-03-01T04:08:32.236Z,84
2023-03-01T04:09:32.288Z,84
2023-03-01T04:10:32.238Z,84
2023-03-01T04:11:32.201Z,84
2023-03-01T04:12:32.263Z,84
2023-03-01T04:13:32.285Z,84
2023-03-01T04:14:32.221Z,84
2023-03-01T04:15:32.210Z,84
2023-03-01T04:16:32.652Z,84
2023-03-01T04:17:32.277Z,84
2023-03-01T04:18:32.217Z,84
2023-03-01T04:19:32.241Z,84
2023-03-01T04:20:32.245Z,84
2023-03-01T04:21:32.205Z,84
2023-03-01T04:22:32.244Z,84
2023-03-01T04:23:32.214Z,84
2023-03-01T04:24:32.248Z,84
2023-03-01T04:25:32.214Z,84
2023-03-01T04:26:32.578Z,84
2023-03-01T04:27:32.202Z,84
2023-03-01T04:28:32.250Z,84
2023-03-01T04:29:32.218Z,84
2023-03-01T04:30:32.241Z,84
2023-03-01T04:31:32.261Z,84
2023-03-01T04:32:32.297Z,84
2023-03-01T04:33:32.183Z,84
2023-03-01T04:34:32.202Z,84
2023-03-01T04:35:32.422Z,83
2023-03-01T04:36:32.644Z,83
2023-03-01T04:37:32.210Z,83
2023-03-01T04:38:32.199Z,83
2023-03-01T04:39:32.210Z,83
2023-03-01T04:40:32.220Z,83
2023-03-01T04:41:32.187Z,83
2023-03-01T04:42:32.254Z,83
2023-03-01T04:43:32.217Z,83
2023-03-01T04:44:32.229Z,83
2023-03-01T04:45:32.272Z,83
2023-03-01T04:46:32.514Z,83
2023-03-01T04:47:32.282Z,83
2023-03-01T04:48:32.227Z,83
2023-03-01T04:49:32.210Z,83
2023-03-01T04:50:32.213Z,83
2023-03-01T04:51:32.179Z,83
2023-03-01T04:52:32.219Z,83
2023-03-01T04:53:32.201Z,83
2023-03-01T04:54:32.194Z,83
2023-03-01T04:55:32.201Z,83
2023-03-01T04:56:32.675Z,83
2023-03-01T04:57:32.194Z,83
2023-03-01T04:58:32.193Z,83
2023-03-01T04:59:32.197Z,83
2023-03-01T05:00:32.228Z,83
2023-03-01T05:01:32.236Z,83
2023-03-01T05:02:32.252Z,83
2023-03-01T05:03:32.217Z,84
2023-03-01T05:04:32.276Z,84
2023-03-01T05:05:32.412Z,84
2023-03-01T05:06:32.610Z,83
2023-03-01T05:07:32.260Z,83
2023-03-01T05:08:32.228Z,83
2023-03-01T05:09:32.237Z,83
2023-03-01T05:10:32.196Z,84
2023-03-01T05:11:32.208Z,84
2023-03-01T05:12:32.219Z,84
2023-03-01T05:13:32.205Z,84
2023-03-01T05:14:32.218Z,84
2023-03-01T05:15:32.413Z,84
2023-03-01T05:16:34.888Z,84
2023-03-01T05:17:32.258Z,84
2023-03-01T05:18:32.205Z,84
2023-03-01T05:19:32.190Z,85
2023-03-01T05:20:32.234Z,85
2023-03-01T05:21:32.229Z,85
2023-03-01T05:22:32.219Z,85
2023-03-01T05:23:32.236Z,85
2023-03-01T05:24:32.295Z,85
2023-03-01T05:25:32.189Z,85
2023-03-01T05:26:32.218Z,85
2023-03-01T05:27:32.219Z,85
2023-03-01T05:28:32.197Z,85
2023-03-01T05:29:32.227Z,85
2023-03-01T05:30:32.170Z,85
2023-03-01T05:31:32.342Z,85
2023-03-01T05:32:32.218Z,85
2023-03-01T05:33:32.237Z,85
2023-03-01T05:34:32.188Z,85
2023-03-01T05:35:32.255Z,85
2023-03-01T05:36:32.515Z,85
2023-03-01T05:37:32.204Z,85
2023-03-01T05:38:32.222Z,85
2023-03-01T05:39:32.238Z,85
2023-03-01T05:40:32.203Z,85
2023-03-01T05:41:32.242Z,85
2023-03-01T05:42:32.201Z,85
2023-03-01T05:43:32.231Z,85
2023-03-01T05:44:32.206Z,85
2023-03-01T05:45:32.226Z,85
2023-03-01T05:46:32.600Z,85
2023-03-01T05:47:32.276Z,85
2023-03-01T05:48:32.186Z,85
2023-03-01T05:49:32.193Z,85
2023-03-01T05:50:32.189Z,85
2023-03-01T05:51:32.212Z,85
2023-03-01T05:52:32.192Z,85
2023-03-01T05:53:32.235Z,85
2023-03-01T05:54:32.194Z,85
2023-03-01T05:55:32.219Z,85
2023-03-01T05:56:32.522Z,85
2023-03-01T05:57:32.251Z,85
2023-03-01T05:58:32.230Z,85
2023-03-01T05:59:32.237Z,85
2023-03-01T06:00:32.222Z,85
2023-03-01T06:01:32.227Z,85
2023-03-01T06:02:32.231Z,85
2023-03-01T06:03:32.217Z,85
2023-03-01T06:04:32.258Z,85
2023-03-01T06:05:32.296Z,85
2023-03-01T06:06:32.577Z,85
2023-03-01T06:07:32.248Z,85
2023-03-01T06:08:32.198Z,85
2023-03-01T06:09:32.223Z,85
2023-03-01T06:10:32.267Z,85
2023-03-01T06:11:32.237Z,85
2023-03-01T06:12:32.208Z,85
2023-03-01T06:13:32.220Z,85
2023-03-01T06:14:32.217Z,85
2023-03-01T06:15:32.339Z,85
2023-03-01T06:16:32.596Z,85
2023-03-01T06:17:32.240Z,85
2023-03-01T06:18:32.229Z,85
2023-03-01T06:19:32.218Z,85
2023-03-01T06:20:32.181Z,85
2023-03-01T06:21:32.225Z,85
2023-03-01T06:22:32.211Z,85
2023-03-01T06:23:32.188Z,84
2023-03-01T06:24:32.233Z,84
2023-03-01T06:25:32.185Z,84
2023-03-01T06:26:32.579Z,84
2023-03-01T06:27:32.264Z,84
2023-03-01T06:28:32.237Z,84
2023-03-01T06:29:32.224Z,84
2023-03-01T06:30:32.197Z,84
2023-03-01T06:31:32.328Z,84
2023-03-01T06:32:32.231Z,84
2023-03-01T06:33:32.206Z,85
2023-03-01T06:34:32.205Z,85
2023-03-01T06:35:32.330Z,85
2023-03-01T06:36:32.561Z,85
2023-03-01T06:37:32.216Z,85
2023-03-01T06:38:32.194Z,85
2023-03-01T06:39:32.210Z,85
2023-03-01T06:40:32.270Z,85
2023-03-01T06:41:32.241Z,85
2023-03-01T06:42:32.218Z,85
2023-03-01T06:43:32.211Z,85
2023-03-01T06:44:32.208Z,85
2023-03-01T06:45:32.191Z,85
2023-03-01T06:46:32.530Z,85
2023-03-01T06:47:32.211Z,85
2023-03-01T06:48:32.220Z,84
2023-03-01T06:49:32.288Z,84
2023-03-01T06:50:32.263Z,84
2023-03-01T06:51:32.226Z,84
2023-03-01T06:52:32.226Z,84
2023-03-01T06:53:32.277Z,84
2023-03-01T06:54:32.199Z,84
2023-03-01T06:55:32.199Z,84
2023-03-01T06:56:32.566Z,83
2023-03-01T06:57:32.281Z,83
2023-03-01T06:58:32.189Z,83
2023-03-01T06:59:32.194Z,82
2023-03-01T07:00:32.227Z,82
2023-03-01T07:01:32.240Z,82
2023-03-01T07:02:32.301Z,81
2023-03-01T07:03:32.275Z,81
2023-03-01T07:04:32.200Z,80
2023-03-01T07:05:32.239Z,80
2023-03-01T07:06:32.636Z,79
2023-03-01T07:07:32.192Z,79
2023-03-01T07:08:32.206Z,80
2023-03-01T07:09:32.216Z,80
2023-03-01T07:10:32.195Z,79
2023-03-01T07:11:32.187Z,79
2023-03-01T07:12:32.244Z,79
2023-03-01T07:13:32.197Z,79
2023-03-01T07:14:32.224Z,79
2023-03-01T07:15:32.187Z,79
2023-03-01T07:16:32.566Z,79
2023-03-01T07:17:32.206Z,78
2023-03-01T07:18:32.186Z,78
2023-03-01T07:19:32.188Z,77
2023-03-01T07:20:32.234Z,78
2023-03-01T07:21:32.188Z,78
2023-03-01T07:22:32.176Z,77
2023-03-01T07:23:32.197Z,77
2023-03-01T07:24:32.212Z,77
2023-03-01T07:25:32.242Z,77
2023-03-01T07:26:32.471Z,76
2023-03-01T07:27:32.194Z,76
2023-03-01T07:28:32.225Z,76
2023-03-01T07:29:32.203Z,76
2023-03-01T07:30:32.226Z,76
2023-03-01T07:31:32.203Z,76
2023-03-01T07:32:32.304Z,76
2023-03-01T07:33:32.255Z,74
2023-03-01T07:34:32.288Z,74
2023-03-01T07:35:32.269Z,74
2023-03-01T07:36:32.664Z,73
2023-03-01T07:37:32.256Z,74
2023-03-01T07:38:32.193Z,74
2023-03-01T07:39:32.205Z,73
2023-03-01T07:40:32.285Z,74
2023-03-01T07:41:32.240Z,74
2023-03-01T07:42:32.186Z,74
2023-03-01T07:43:32.237Z,74
2023-03-01T07:44:32.194Z,73
2023-03-01T07:45:32.234Z,74
2023-03-01T07:46:32.435Z,75
2023-03-01T07:47:32.196Z,74
2023-03-01T07:48:32.212Z,74
2023-03-01T07:49:32.229Z,74
2023-03-01T07:50:32.177Z,73
2023-03-01T07:51:32.271Z,72
2023-03-01T07:52:32.201Z,72
2023-03-01T07:53:32.204Z,72
2023-03-01T07:54:32.221Z,72
2023-03-01T07:55:32.176Z,71
2023-03-01T07:56:32.509Z,72
2023-03-01T07:57:32.181Z,71
2023-03-01T07:58:32.230Z,71
2023-03-01T07:59:32.188Z,70
2023-03-01T08:00:32.292Z,70
2023-03-01T08:01:32.259Z,70
2023-03-01T08:02:32.219Z,68
2023-03-01T08:03:32.292Z,68
2023-03-01T08:04:32.229Z,69
2023-03-01T08:05:32.162Z,69
2023-03-01T08:06:32.688Z,70
2023-03-01T08:07:32.199Z,69
2023-03-01T08:08:32.223Z,68
2023-03-01T08:09:32.216Z,69
2023-03-01T08:10:32.190Z,69
2023-03-01T08:11:32.205Z,69
2023-03-01T08:12:32.190Z,69
2023-03-01T08:13:32.219Z,70
2023-03-01T08:14:32.261Z,70
2023-03-01T08:15:32.187Z,70
2023-03-01T08:16:32.719Z,70
2023-03-01T08:17:32.198Z,71
2023-03-01T08:18:32.207Z,71
2023-03-01T08:19:32.173Z,70
2023-03-01T08:20:32.207Z,70
2023-03-01T08:21:32.170Z,71
2023-03-01T08:22:32.209Z,71
2023-03-01T08:23:32.129Z,70
2023-03-01T08:24:32.181Z,70
2023-03-01T08:25:32.163Z,69
2023-03-01T08:26:32.526Z,69
2023-03-01T08:27:32.192Z,68
2023-03-01T08:28:32.202Z,67
2023-03-01T08:29:32.190Z,68
2023-03-01T08:30:32.213Z,67
2023-03-01T08:31:32.258Z,68
2023-03-01T08:32:32.195Z,67
2023-03-01T08:33:32.181Z,67
2023-03-01T08:34:32.201Z,67
2023-03-01T08:35:32.214Z,68
2023-03-01T08:36:32.604Z,68
2023-03-01T08:37:32.184Z,68
2023-03-01T08:38:32.196Z,68
2023-03-01T08:39:32.213Z,69
2023-03-01T08:40:32.188Z,69
2023-03-01T08:41:32.169Z,69
2023-03-01T08:42:32.207Z,69
2023-03-01T08:43:32.202Z,69
2023-03-01T08:44:32.169Z,69
2023-03-01T08:45:32.255Z,69
2023-03-01T08:46:32.598Z,69
2023-03-01T08:47:32.176Z,68
2023-03-01T08:48:32.217Z,68
2023-03-01T08:49:32.159Z,67
2023-03-01T08:50:32.189Z,66
2023-03-01T08:51:32.180Z,67
2023-03-01T08:52:32.163Z,67
2023-03-01T08:53:32.170Z,66
2023-03-01T08:54:32.241Z,66
2023-03-01T08:55:32.168Z,66
2023-03-01T08:56:32.406Z,66
2023-03-01T08:57:32.176Z,66
2023-03-01T08:58:32.186Z,65
2023-03-01T08:59:32.162Z,66
2023-03-01T09:00:32.185Z,66
2023-03-01T09:01:32.212Z,66
2023-03-01T09:02:32.295Z,65
2023-03-01T09:03:32.458Z,65
2023-03-01T09:04:32.272Z,66
2023-03-01T09:05:32.176Z,66
2023-03-01T09:06:32.510Z,66
2023-03-01T09:07:32.209Z,66
2023-03-01T09:08:32.194Z,66
2023-03-01T09:09:32.164Z,66
2023-03-01T09:10:32.224Z,66
2023-03-01T09:11:32.186Z,66
2023-03-01T09:12:32.180Z,65
2023-03-01T09:13:32.156Z,65
2023-03-01T09:14:32.192Z,64
2023-03-01T09:15:32.143Z,65
2023-03-01T09:16:32.582Z,65
2023-03-01T09:17:32.271Z,65
2023-03-01T09:18:32.212Z,65
2023-03-01T09:19:32.185Z,64
2023-03-01T09:20:32.207Z,64
2023-03-01T09:21:40.314Z,64
2023-03-01T09:22:32.200Z,64
2023-03-01T09:23:32.180Z,66
2023-03-01T09:24:32.184Z,65
2023-03-01T09:25:32.228Z,65
2023-03-01T09:26:32.445Z,66
2023-03-01T09:27:32.205Z,65
2023-03-01T09:28:32.177Z,65
2023-03-01T09:29:32.180Z,66
2023-03-01T09:30:32.286Z,66
2023-03-01T09:31:32.235Z,65
2023-03-01T09:32:32.229Z,65
2023-03-01T09:33:32.231Z,65
2023-03-01T09:34:32.159Z,66
2023-03-01T09:35:32.259Z,65
2023-03-01T09:36:32.567Z,65
2023-03-01T09:37:32.187Z,65
2023-03-01T09:38:32.209Z,65
2023-03-01T09:39:32.186Z,64
2023-03-01T09:40:32.197Z,63
2023-03-01T09:41:32.199Z,63
2023-03-01T09:42:32.178Z,63
2023-03-01T09:43:32.215Z,63
2023-03-01T09:44:32.313Z,62
2023-03-01T09:45:32.177Z,62
2023-03-01T09:46:32.618Z,62
2023-03-01T09:47:32.193Z,63
2023-03-01T09:48:32.225Z,64
2023-03-01T09:49:32.199Z,63
2023-03-01T09:50:32.183Z,63
2023-03-01T09:51:32.204Z,63
2023-03-01T09:52:32.167Z,63
2023-03-01T09:53:32.182Z,63
2023-03-01T09:54:32.299Z,62
2023-03-01T09:55:32.197Z,62
2023-03-01T09:56:32.628Z,63
2023-03-01T09:57:32.165Z,63
2023-03-01T09:58:32.164Z,62
2023-03-01T09:59:32.185Z,62
2023-03-01T10:00:32.219Z,62
2023-03-01T10:01:32.473Z,62
2023-03-01T10:02:32.199Z,62
2023-03-01T10:03:32.261Z,62
2023-03-01T10:04:32.233Z,63
2023-03-01T10:05:32.261Z,63
2023-03-01T10:06:35.337Z,63
2023-03-01T10:07:32.217Z,63
2023-03-01T10:08:32.405Z,63
2023-03-01T10:09:32.147Z,62
2023-03-01T10:10:32.205Z,63
2023-03-01T10:11:32.177Z,63
2023-03-01T10:12:32.179Z,63
2023-03-01T10:13:32.148Z,63
2023-03-01T10:14:32.206Z,63
2023-03-01T10:15:32.230Z,63
2023-03-01T10:16:32.175Z,63
2023-03-01T10:17:32.157Z,63
2023-03-01T10:18:32.267Z,63
2023-03-01T10:19:32.200Z,63
2023-03-01T10:20:32.174Z,63
2023-03-01T10:21:32.458Z,63
2023-03-01T10:22:32.164Z,63
2023-03-01T10:23:32.207Z,63
2023-03-01T10:24:32.190Z,63
2023-03-01T10:25:32.205Z,63
2023-03-01T10:26:32.500Z,63
2023-03-01T10:27:32.273Z,62
2023-03-01T10:28:32.161Z,62
2023-03-01T10:29:32.180Z,62
2023-03-01T10:30:32.165Z,62
2023-03-01T10:31:32.598Z,62
2023-03-01T10:32:32.212Z,63
2023-03-01T10:33:32.210Z,63
2023-03-01T10:34:32.190Z,63
2023-03-01T10:35:32.256Z,63
2023-03-01T10:36:32.474Z,63
2023-03-01T10:37:32.191Z,63
2023-03-01T10:38:32.201Z,63
2023-03-01T10:39:33.536Z,62
2023-03-01T10:40:32.175Z,63
2023-03-01T10:41:32.463Z,63
2023-03-01T10:42:32.163Z,63
2023-03-01T10:43:32.193Z,62
2023-03-01T10:44:32.210Z,62
2023-03-01T10:45:32.288Z,62
2023-03-01T10:46:32.191Z,61
2023-03-01T10:47:32.198Z,62
2023-03-01T10:48:32.161Z,62
2023-03-01T10:49:32.186Z,62
2023-03-01T10:50:32.160Z,62
2023-03-01T10:51:32.401Z,62
2023-03-01T10:52:32.190Z,62
2023-03-01T10:53:32.159Z,62
2023-03-01T10:54:32.211Z,61
2023-03-01T10:55:32.195Z,62
2023-03-01T10:56:32.174Z,62
2023-03-01T10:57:32.193Z,62
2023-03-01T10:58:32.171Z,62
2023-03-01T10:59:32.217Z,62
2023-03-01T11:00:32.172Z,61
2023-03-01T11:01:32.537Z,61
2023-03-01T11:02:32.321Z,61
2023-03-01T11:03:32.173Z,61
2023-03-01T11:04:32.258Z,62
2023-03-01T11:05:32.163Z,62
2023-03-01T11:06:32.152Z,62
2023-03-01T11:07:32.190Z,62
2023-03-01T11:08:34.765Z,62
2023-03-01T11:09:32.249Z,62
2023-03-01T11:10:32.191Z,62
2023-03-01T11:11:32.445Z,62
2023-03-01T11:12:32.202Z,61
2023-03-01T11:13:32.149Z,62
2023-03-01T11:14:32.182Z,62
2023-03-01T11:15:32.196Z,62
2023-03-01T11:16:32.274Z,61
2023-03-01T11:17:36.546Z,62
2023-03-01T11:18:46.497Z,62
2023-03-01T11:19:32.266Z,61
2023-03-01T11:20:32.181Z,61
2023-03-01T11:21:32.581Z,61
2023-03-01T11:22:32.293Z,61
2023-03-01T11:23:32.178Z,62
2023-03-01T11:24:32.180Z,62
2023-03-01T11:25:32.215Z,61
2023-03-01T11:26:32.504Z,62
2023-03-01T11:27:32.219Z,61
2023-03-01T11:28:32.224Z,60
2023-03-01T11:29:37.200Z,61
2023-03-01T11:30:32.172Z,61
2023-03-01T11:31:32.435Z,61
2023-03-01T11:32:32.406Z,61
2023-03-01T11:33:32.174Z,60
2023-03-01T11:34:32.177Z,60
2023-03-01T11:35:32.177Z,60
2023-03-01T11:36:32.175Z,60
2023-03-01T11:37:32.190Z,60
2023-03-01T11:38:32.198Z,61
2023-03-01T11:39:32.169Z,60
2023-03-01T11:40:32.180Z,60
2023-03-01T11:41:32.469Z,59
2023-03-01T11:42:32.267Z,60
2023-03-01T11:43:32.161Z,59
2023-03-01T11:44:32.143Z,60
2023-03-01T11:45:32.179Z,60
2023-03-01T11:46:32.455Z,59
2023-03-01T11:47:32.307Z,60
2023-03-01T11:48:47.084Z,59
2023-03-01T11:49:32.204Z,59
2023-03-01T11:50:32.196Z,59
2023-03-01T11:51:32.510Z,59
2023-03-01T11:52:32.170Z,59
2023-03-01T11:53:32.144Z,59
2023-03-01T11:54:32.200Z,60
2023-03-01T11:55:32.313Z,60
2023-03-01T11:56:32.180Z,60
2023-03-01T11:57:42.736Z,59
2023-03-01T11:58:32.240Z,59
2023-03-01T11:59:32.171Z,59
2023-03-01T12:00:32.200Z,59
2023-03-01T12:01:32.546Z,58
2023-03-01T12:02:32.311Z,57
2023-03-01T12:03:32.144Z,58
2023-03-01T12:04:32.305Z,57
2023-03-01T12:05:32.216Z,57
2023-03-01T12:06:32.161Z,57
2023-03-01T12:07:32.761Z,58
2023-03-01T12:08:32.166Z,59
2023-03-01T12:09:32.208Z,59
2023-03-01T12:10:32.175Z,59
2023-03-01T12:11:32.154Z,59
2023-03-01T12:12:32.169Z,58
2023-03-01T12:13:32.157Z,59
2023-03-01T12:14:32.153Z,59
2023-03-01T12:15:32.142Z,59
2023-03-01T12:16:39.027Z,58
2023-03-01T12:17:32.170Z,58
2023-03-01T12:18:32.233Z,59
2023-03-01T12:19:32.138Z,59
2023-03-01T12:20:32.153Z,59
2023-03-01T12:21:32.494Z,59
2023-03-01T12:22:32.208Z,59
2023-03-01T12:23:32.157Z,59
2023-03-01T12:24:32.165Z,58
2023-03-01T12:25:32.166Z,58
2023-03-01T12:26:32.185Z,58
2023-03-01T12:27:32.171Z,59
2023-03-01T12:28:32.168Z,58
2023-03-01T12:29:32.137Z,57
2023-03-01T12:30:32.339Z,58
2023-03-01T12:31:32.514Z,58
2023-03-01T12:32:34.075Z,57
2023-03-01T12:33:32.153Z,58
2023-03-01T12:34:32.151Z,57
2023-03-01T12:35:32.197Z,57
2023-03-01T12:36:32.681Z,57
2023-03-01T12:37:32.200Z,57
2023-03-01T12:38:32.164Z,57
2023-03-01T12:39:32.146Z,57
2023-03-01T12:40:32.174Z,57
2023-03-01T12:41:32.509Z,56
2023-03-01T12:42:32.201Z,57
2023-03-01T12:43:32.164Z,56
2023-03-01T12:44:32.163Z,58
2023-03-01T12:45:32.234Z,57
2023-03-01T12:46:32.534Z,58
2023-03-01T12:47:32.181Z,57
2023-03-01T12:48:32.167Z,57
2023-03-01T12:49:32.194Z,57
2023-03-01T12:50:32.167Z,57
2023-03-01T12:51:32.148Z,57
2023-03-01T12:52:32.243Z,57
2023-03-01T12:53:32.211Z,57
2023-03-01T12:54:32.187Z,57
2023-03-01T12:55:32.147Z,57
2023-03-01T12:56:32.471Z,56
2023-03-01T12:57:32.136Z,57
2023-03-01T12:58:47.448Z,57
2023-03-01T12:59:32.214Z,57
2023-03-01T13:00:32.319Z,57
2023-03-01T13:01:32.157Z,57
2023-03-01T13:02:32.190Z,57
2023-03-01T13:03:32.126Z,56
2023-03-01T13:04:34.324Z,55
2023-03-01T13:05:32.131Z,56
2023-03-01T13:06:41.418Z,56
2023-03-01T13:07:32.147Z,56
2023-03-01T13:08:32.144Z,55
2023-03-01T13:09:32.201Z,56
2023-03-01T13:10:32.144Z,55
2023-03-01T13:11:32.138Z,54
2023-03-01T13:12:32.257Z,53
2023-03-01T13:13:32.151Z,53
2023-03-01T13:14:32.146Z,54
2023-03-01T13:15:32.126Z,55
2023-03-01T13:16:32.451Z,55
2023-03-01T13:17:32.157Z,55
2023-03-01T13:18:32.162Z,55
2023-03-01T13:19:32.149Z,55
2023-03-01T13:20:32.185Z,55
2023-03-01T13:21:32.117Z,55
2023-03-01T13:22:32.172Z,55
2023-03-01T13:23:32.151Z,54
2023-03-01T13:24:32.140Z,54
2023-03-01T13:25:42.079Z,54
2023-03-01T13:26:32.544Z,54
2023-03-01T13:27:32.193Z,54
2023-03-01T13:28:32.150Z,55
2023-03-01T13:29:32.136Z,54
2023-03-01T13:30:32.175Z,54
2023-03-01T13:31:32.349Z,54
2023-03-01T13:32:43.070Z,55
2023-03-01T13:33:32.136Z,55
2023-03-01T13:34:32.148Z,55
2023-03-01T13:35:32.201Z,53
2023-03-01T13:36:32.704Z,53
2023-03-01T13:37:32.137Z,53
2023-03-01T13:38:32.148Z,54
2023-03-01T13:39:32.173Z,53
2023-03-01T13:40:32.200Z,52
2023-03-01T13:41:32.142Z,53
2023-03-01T13:42:32.153Z,52
2023-03-01T13:43:32.145Z,53
2023-03-01T13:44:32.151Z,53
2023-03-01T13:45:32.168Z,53
2023-03-01T13:46:32.628Z,53
2023-03-01T13:47:32.203Z,54
2023-03-01T13:48:32.244Z,54
2023-03-01T13:49:45.364Z,55
2023-03-01T13:50:32.158Z,54
2023-03-01T13:51:32.168Z,54
2023-03-01T13:52:32.184Z,54
2023-03-01T13:53:32.215Z,54
2023-03-01T13:54:32.136Z,54
2023-03-01T13:55:32.196Z,54
2023-03-01T13:56:32.469Z,52
2023-03-01T13:57:32.167Z,53
2023-03-01T13:58:32.130Z,54
2023-03-01T13:59:32.173Z,53
2023-03-01T14:00:32.162Z,52
2023-03-01T14:01:32.497Z,52
2023-03-01T14:02:32.176Z,52
2023-03-01T14:03:32.209Z,52
2023-03-01T14:04:32.241Z,52
2023-03-01T14:05:32.164Z,53
2023-03-01T14:06:32.613Z,53
2023-03-01T14:07:32.190Z,53
2023-03-01T14:08:32.187Z,54
2023-03-01T14:09:32.144Z,54
2023-03-01T14:10:32.148Z,54
2023-03-01T14:11:32.184Z,54
2023-03-01T14:12:32.200Z,54
2023-03-01T14:13:32.154Z,54
2023-03-01T14:14:32.152Z,55
2023-03-01T14:15:32.205Z,55